Time;durP1;ratioP1;P1;durP2;ratioP2;P2;SDS_P1;SDS_P2;PMS_P1;PMS_P2;Temp;Humidity;BMP_temperature;BMP_pressure;BME280_temperature;BME280_humidity;BME280_pressure;Samples;Min_cycle;Max_cycle;Signal;HPM_P1;HPM_P2
2021/04/21 00:02:14;;;;;;;27.75;20.80;;;;;;;6.02;70.96;99622.19;4942520;29;20035;-68
2021/04/21 00:04:39;;;;;;;27.70;22.17;;;;;;;5.99;70.40;99610.06;4944782;29;20028;-69
2021/04/21 00:07:06;;;;;;;29.63;23.38;;;;;;;5.95;70.88;99615.47;4952126;29;20034;-70
2021/04/21 00:09:32;;;;;;;27.90;22.60;;;;;;;5.91;70.76;99617.31;4953356;29;20035;-68
2021/04/21 00:11:58;;;;;;;29.42;22.55;;;;;;;5.88;71.22;99616.53;4953419;29;20033;-69
2021/04/21 00:14:25;;;;;;;26.23;21.77;;;;;;;5.89;70.73;99619.09;4959340;28;20035;-69
2021/04/21 00:16:57;;;;;;;23.13;19.20;;;;;;;5.97;70.42;99621.50;4944000;28;20032;-69
2021/04/21 00:19:25;;;;;;;26.95;19.63;;;;;;;6.04;70.00;99619.53;4935751;29;20039;-69
2021/04/21 00:21:52;;;;;;;32.00;24.10;;;;;;;6.01;70.43;99616.13;4948915;29;20046;-68
2021/04/21 00:24:17;;;;;;;30.00;23.73;;;;;;;5.95;70.99;99610.22;4952600;28;20035;-69
2021/04/21 00:26:45;;;;;;;33.20;23.77;;;;;;;5.83;70.75;99616.69;4953106;29;20042;-69
2021/04/21 00:29:12;;;;;;;32.42;25.02;;;;;;;5.67;71.43;99616.31;4950264;28;20031;-69
2021/04/21 00:31:39;;;;;;;33.72;25.15;;;;;;;5.70;71.62;99620.59;4944530;29;20116;-70
2021/04/21 00:34:06;;;;;;;28.17;23.02;;;;;;;5.77;71.40;99617.75;4933182;29;20055;-68
2021/04/21 00:36:35;;;;;;;30.33;22.38;;;;;;;5.84;70.94;99615.78;4947554;29;20039;-68
2021/04/21 00:39:03;;;;;;;35.17;25.20;;;;;;;5.87;70.48;99604.38;4952684;29;20055;-71
2021/04/21 00:41:34;;;;;;;36.30;25.08;;;;;;;5.84;70.24;99596.63;4952545;29;20119;-69
2021/04/21 00:44:24;;;;;;;35.47;26.63;;;;;;;5.83;70.40;99598.38;4952737;29;20039;-69
2021/04/21 00:46:58;;;;;;;30.90;23.75;;;;;;;5.79;70.77;99602.84;4906013;29;20059;-70
2021/04/21 00:49:29;;;;;;;26.38;22.52;;;;;;;5.83;70.52;99600.97;4914762;29;20050;-69
2021/04/21 00:52:04;;;;;;;32.05;25.42;;;;;;;5.80;70.69;99601.09;4914581;29;20696;-69
2021/04/21 00:54:33;;;;;;;34.00;23.08;;;;;;;5.69;70.68;99601.44;4914320;29;20087;-69
2021/04/21 00:57:24;;;;;;;28.48;21.38;;;;;;;5.77;70.64;99604.66;4914104;29;20122;-69
2021/04/21 01:00:14;;;;;;;31.58;23.10;;;;;;;5.79;70.44;99602.00;4914539;29;20028;-70
2021/04/21 01:03:26;;;;;;;34.20;24.15;;;;;;;5.78;70.86;99600.28;4892666;29;20119;-69
2021/04/21 01:06:03;;;;;;;31.85;24.90;;;;;;;5.73;70.97;99592.56;4913472;29;20403;-70
2021/04/21 01:08:37;;;;;;;31.42;24.27;;;;;;;5.70;70.70;99597.06;4914353;29;20036;-69
2021/04/21 01:11:04;;;;;;;33.78;28.05;;;;;;;5.68;71.17;99594.50;4914435;29;20032;-69
2021/04/21 01:13:37;;;;;;;44.03;28.67;;;;;;;5.52;71.20;99591.53;4923829;29;20491;-68
2021/04/21 01:16:05;;;;;;;34.92;28.73;;;;;;;5.44;71.58;99596.16;4941665;28;20031;-69
2021/04/21 01:18:31;;;;;;;33.10;28.50;;;;;;;5.43;71.69;99591.81;4962490;28;20066;-68
2021/04/21 01:21:07;;;;;;;27.90;23.58;;;;;;;5.46;71.21;99583.00;4952367;28;20097;-69
2021/04/21 01:23:52;;;;;;;37.60;25.40;;;;;;;5.45;71.21;99586.53;4969823;28;20102;-70
2021/04/21 01:26:30;;;;;;;34.30;24.00;;;;;;;5.40;71.35;99581.44;4971289;28;20045;-69
2021/04/21 01:28:58;;;;;;;30.05;25.52;;;;;;;5.34;71.23;99579.00;4971884;28;20498;-69
2021/04/21 01:31:27;;;;;;;31.15;25.17;;;;;;;5.30;71.89;99574.81;4975571;28;20050;-70
2021/04/21 01:33:55;;;;;;;35.78;28.52;;;;;;;5.25;71.79;99574.09;4980995;28;20034;-69
2021/04/21 01:36:23;;;;;;;31.33;24.25;;;;;;;5.23;71.95;99581.97;4983039;28;20034;-69
2021/04/21 01:38:52;;;;;;;29.65;23.38;;;;;;;5.23;71.73;99576.75;4969037;28;20036;-69
2021/04/21 01:41:26;;;;;;;38.17;27.95;;;;;;;5.25;71.31;99574.94;4937208;29;20036;-68
2021/04/21 01:44:09;;;;;;;27.05;21.85;;;;;;;5.27;71.70;99572.28;4933024;29;20032;-68
2021/04/21 01:46:41;;;;;;;30.25;23.15;;;;;;;5.26;71.44;99568.81;4933064;29;20034;-69
2021/04/21 01:49:35;;;;;;;32.67;25.83;;;;;;;5.24;71.17;99581.09;4933314;29;20027;-68
2021/04/21 01:52:13;;;;;;;31.63;25.95;;;;;;;5.24;71.91;99573.25;4938329;29;20063;-69
2021/04/21 01:54:43;;;;;;;33.75;26.33;;;;;;;5.24;71.68;99580.22;4955828;28;20403;-69
2021/04/21 01:57:19;;;;;;;33.95;29.35;;;;;;;5.16;71.63;99580.44;4954458;29;20051;-68
2021/04/21 01:59:49;;;;;;;37.50;26.35;;;;;;;5.13;72.26;99581.41;4952721;28;20179;-68
2021/04/21 02:02:22;;;;;;;29.40;22.73;;;;;;;5.18;71.44;99583.03;4967598;28;20050;-68
2021/04/21 02:05:12;;;;;;;39.00;29.20;;;;;;;5.20;72.22;99591.69;4969540;28;20090;-69
2021/04/21 02:08:15;;;;;;;34.05;24.80;;;;;;;5.21;72.14;99594.22;4973522;28;20058;-68
2021/04/21 02:11:04;;;;;;;36.17;26.45;;;;;;;5.18;72.01;99586.47;4972806;28;20057;-70
2021/04/21 02:13:42;;;;;;;38.85;26.80;;;;;;;5.12;72.45;99587.53;4963905;28;20039;-69
2021/04/21 02:16:13;;;;;;;43.28;27.70;;;;;;;5.00;72.07;99590.50;4953377;29;20353;-68
2021/04/21 02:19:02;;;;;;;33.83;28.10;;;;;;;4.87;73.12;99590.03;4951048;28;20039;-67
2021/04/21 02:21:49;;;;;;;38.13;29.65;;;;;;;4.86;72.69;99597.88;4950445;29;20050;-68
2021/04/21 02:24:52;;;;;;;39.08;31.35;;;;;;;4.85;73.15;99594.44;4950991;29;20036;-67
2021/04/21 02:27:46;;;;;;;40.13;30.25;;;;;;;4.87;73.27;99591.75;4950319;28;20171;-68
2021/04/21 02:30:11;;;;;;;36.00;27.98;;;;;;;4.83;72.97;99590.16;4950401;29;20050;-68
2021/04/21 02:32:55;;;;;;;37.40;30.10;;;;;;;4.79;73.07;99596.34;4950801;28;20045;-71
2021/04/21 02:35:43;;;;;;;37.22;25.20;;;;;;;4.80;72.71;99598.94;4950482;29;20035;-68
2021/04/21 02:38:37;;;;;;;39.80;28.67;;;;;;;4.81;73.12;99599.78;4950553;29;20050;-67
2021/04/21 02:41:11;;;;;;;35.25;24.90;;;;;;;4.84;72.31;99597.06;4950541;29;20170;-68
2021/04/21 02:44:14;;;;;;;35.17;27.30;;;;;;;4.81;73.17;99598.03;4950534;29;20749;-67
2021/04/21 02:46:55;;;;;;;46.38;29.33;;;;;;;4.77;72.85;99601.59;4922609;28;20040;-70
2021/04/21 02:49:32;;;;;;;33.83;26.70;;;;;;;4.74;73.02;99599.09;4913024;29;20031;-67
2021/04/21 02:52:25;;;;;;;38.20;27.25;;;;;;;4.70;73.59;99589.63;4913898;29;20036;-67
2021/04/21 02:54:50;;;;;;;35.88;26.77;;;;;;;4.66;73.49;99593.25;4915382;29;20400;-68
2021/04/21 02:57:23;;;;;;;36.72;28.52;;;;;;;4.67;73.65;99592.31;4915119;29;20036;-68
2021/04/21 02:59:53;;;;;;;36.63;26.92;;;;;;;4.64;73.78;99587.19;4919122;29;20032;-69
2021/04/21 03:02:46;;;;;;;41.75;30.25;;;;;;;4.64;73.68;99589.81;4934506;29;20035;-69
2021/04/21 03:05:25;;;;;;;35.35;28.40;;;;;;;4.64;73.68;99584.59;4945246;29;20039;-69
2021/04/21 03:08:06;;;;;;;43.03;29.13;;;;;;;4.63;74.29;99586.34;4953906;28;20098;-68
2021/04/21 03:10:38;;;;;;;37.03;28.50;;;;;;;4.60;73.97;99581.19;4936227;29;20090;-67
2021/04/21 03:13:08;;;;;;;42.30;28.85;;;;;;;4.60;74.13;99583.81;4953522;28;20043;-68
2021/04/21 03:15:36;;;;;;;41.67;32.75;;;;;;;4.61;74.13;99588.16;4920398;29;20031;-68
2021/04/21 03:18:06;;;;;;;44.42;33.70;;;;;;;4.54;73.90;99578.78;4953791;28;20372;-68
2021/04/21 03:20:33;;;;;;;48.90;35.25;;;;;;;4.47;74.46;99583.28;4936869;29;20028;-68
2021/04/21 03:23:02;;;;;;;44.70;31.58;;;;;;;4.46;74.63;99584.22;4953285;28;20047;-68
2021/04/21 03:25:38;;;;;;;37.65;29.17;;;;;;;4.52;74.00;99586.63;4936121;29;20082;-69
2021/04/21 03:28:09;;;;;;;36.63;27.92;;;;;;;4.64;73.55;99590.66;4953719;29;20058;-71
2021/04/21 03:30:36;;;;;;;42.10;30.92;;;;;;;4.72;72.84;99593.06;4953655;29;20043;-69
2021/04/21 03:33:20;;;;;;;47.05;32.90;;;;;;;4.70;72.75;99593.13;4953592;29;20118;-69
2021/04/21 03:35:49;;;;;;;54.00;36.28;;;;;;;4.67;72.86;99590.56;4953316;28;20428;-68
2021/04/21 03:38:16;;;;;;;47.20;35.20;;;;;;;4.65;73.37;99586.28;4936506;29;20035;-69
2021/04/21 03:40:42;;;;;;;51.50;36.63;;;;;;;4.63;73.49;99593.34;4928513;28;20051;-69
2021/04/21 03:43:09;;;;;;;47.15;33.58;;;;;;;4.63;73.01;99585.50;4914326;29;20070;-68
2021/04/21 03:45:36;;;;;;;51.28;33.42;;;;;;;4.65;73.45;99587.16;4897815;29;20539;-70
2021/04/21 03:48:02;;;;;;;48.25;35.67;;;;;;;4.65;72.79;99594.13;4915036;29;20123;-71
2021/04/21 03:50:29;;;;;;;49.28;35.25;;;;;;;4.58;72.92;99595.19;4914905;29;20047;-69
2021/04/21 03:52:57;;;;;;;48.25;33.38;;;;;;;4.56;73.53;99591.78;4914901;29;20456;-68
2021/04/21 03:55:23;;;;;;;51.58;37.60;;;;;;;4.49;73.57;99588.47;4897715;29;20087;-69
2021/04/21 03:57:51;;;;;;;46.72;32.83;;;;;;;4.50;73.74;99590.19;4915396;29;20039;-69
2021/04/21 04:00:18;;;;;;;44.30;31.80;;;;;;;4.52;73.94;99588.41;4914834;29;20105;-71
2021/04/21 04:02:57;;;;;;;45.83;33.63;;;;;;;4.51;73.98;99582.31;4896274;29;20079;-69
2021/04/21 04:05:29;;;;;;;45.38;31.85;;;;;;;4.51;74.36;99589.31;4914533;29;20563;-69
2021/04/21 04:08:01;;;;;;;48.17;34.63;;;;;;;4.52;73.93;99589.25;4914414;29;20115;-71
2021/04/21 04:10:31;;;;;;;50.15;34.05;;;;;;;4.52;74.06;99584.03;4915628;29;20036;-71
2021/04/21 04:12:58;;;;;;;44.97;32.78;;;;;;;4.51;74.21;99592.75;4922348;29;20047;-71
2021/04/21 04:15:26;;;;;;;54.08;40.78;;;;;;;4.49;74.21;99589.34;4921473;29;20034;-70
2021/04/21 04:17:55;;;;;;;55.95;36.38;;;;;;;4.40;73.83;99583.50;4951865;28;20042;-70
2021/04/21 04:20:22;;;;;;;52.20;36.97;;;;;;;4.30;74.05;99588.13;4961141;28;20039;-71
2021/04/21 04:22:51;;;;;;;50.22;36.45;;;;;;;4.30;74.15;99591.56;4954347;28;20043;-69
2021/04/21 04:25:17;;;;;;;49.45;35.10;;;;;;;4.33;74.13;99593.25;4972193;28;20470;-70
2021/04/21 04:27:45;;;;;;;50.97;38.30;;;;;;;4.37;74.39;99597.50;4972535;28;20034;-70
2021/04/21 04:30:12;;;;;;;40.45;31.80;;;;;;;4.42;74.19;99603.44;4972340;28;20118;-70
2021/04/21 04:32:41;;;;;;;53.38;39.60;;;;;;;4.43;74.24;99592.13;4954732;28;20435;-71
2021/04/21 04:35:11;;;;;;;46.63;34.88;;;;;;;4.42;74.02;99593.00;4970824;28;20035;-71
2021/04/21 04:37:39;;;;;;;47.22;36.17;;;;;;;4.46;73.84;99597.25;4952586;28;20039;-69
2021/04/21 04:40:07;;;;;;;54.45;37.83;;;;;;;4.44;73.83;99593.81;4952266;29;20517;-69
2021/04/21 04:42:34;;;;;;;50.40;37.20;;;;;;;4.43;73.77;99602.56;4935238;29;20043;-70
2021/04/21 04:45:02;;;;;;;59.50;39.08;;;;;;;4.44;74.40;99604.28;4954074;28;20139;-70
2021/04/21 04:47:33;;;;;;;51.63;36.03;;;;;;;4.38;73.91;99600.97;4961363;28;20384;-69
2021/04/21 04:50:06;;;;;;;58.47;38.58;;;;;;;4.36;74.40;99601.03;4969375;28;20113;-70
2021/04/21 04:52:38;;;;;;;53.42;35.75;;;;;;;4.36;74.27;99606.25;4954201;28;20111;-70
2021/04/21 04:55:04;;;;;;;51.15;35.78;;;;;;;4.38;74.19;99603.56;4938681;28;20044;-70
2021/04/21 04:57:31;;;;;;;45.22;33.13;;;;;;;4.39;74.09;99600.94;4932450;29;20040;-68
2021/04/21 05:00:01;;;;;;;47.53;33.05;;;;;;;4.39;74.19;99611.38;4932767;29;20043;-67
2021/04/21 05:02:31;;;;;;;47.20;38.20;;;;;;;4.42;73.80;99611.28;4932187;29;20539;-68
2021/04/21 05:05:03;;;;;;;48.75;33.05;;;;;;;4.42;74.11;99608.66;4931496;29;20036;-68
2021/04/21 05:07:38;;;;;;;41.70;32.70;;;;;;;4.48;73.62;99613.75;4932004;29;20067;-68
2021/04/21 05:10:07;;;;;;;54.63;39.25;;;;;;;4.52;73.23;99617.97;4932994;29;20043;-70
2021/04/21 05:12:37;;;;;;;57.38;41.10;;;;;;;4.55;73.45;99613.56;4932316;29;20038;-68
2021/04/21 05:15:05;;;;;;;54.53;38.05;;;;;;;4.54;73.62;99614.47;4931940;29;20041;-75
2021/04/21 05:18:08;;;;;;;57.72;37.95;;;;;;;4.61;73.65;99621.22;4932476;29;20387;-69
2021/04/21 05:21:04;;;;;;;46.65;33.42;;;;;;;4.67;73.65;99626.28;4930458;29;20126;-69
2021/04/21 05:23:48;;;;;;;52.78;36.45;;;;;;;4.74;73.36;99626.06;4922818;29;20059;-69
2021/04/21 05:26:17;;;;;;;60.50;39.80;;;;;;;4.80;73.22;99627.66;4931710;29;20565;-71
2021/04/21 05:29:04;;;;;;;48.22;34.08;;;;;;;4.89;73.05;99623.91;4915225;29;20380;-70
2021/04/21 05:32:06;;;;;;;49.55;34.70;;;;;;;5.02;72.24;99624.41;4933645;29;20075;-71
2021/04/21 05:35:14;;;;;;;53.28;37.60;;;;;;;5.10;72.04;99623.28;4933122;29;20497;-70
2021/04/21 05:38:27;;;;;;;104.70;47.00;;;;;;;5.22;72.13;99627.31;4935163;28;20040;-70
2021/04/21 05:41:17;;;;;;;102.60;46.30;;;;;;;5.29;71.97;99627.97;4926966;29;20036;-70
2021/04/21 05:44:01;;;;;;;97.15;46.47;;;;;;;5.41;71.87;99629.34;4931443;29;20051;-69
2021/04/21 05:46:26;;;;;;;101.00;48.05;;;;;;;5.54;71.92;99628.09;4931906;29;20032;-69
2021/04/21 05:49:20;;;;;;;50.72;37.28;;;;;;;5.67;71.38;99636.41;4932431;29;20047;-70
2021/04/21 05:52:00;;;;;;;61.15;39.92;;;;;;;5.90;70.40;99633.03;4932911;29;20028;-69
2021/04/21 05:55:02;;;;;;;55.60;39.83;;;;;;;6.09;70.16;99631.56;4932708;29;20099;-69
2021/04/21 05:58:02;;;;;;;58.22;40.83;;;;;;;6.37;69.46;99634.09;4937645;29;20037;-69
2021/04/21 06:00:42;;;;;;;53.08;40.50;;;;;;;6.59;68.71;99635.97;4955890;28;20062;-68
2021/04/21 06:03:10;;;;;;;57.45;38.40;;;;;;;6.88;68.09;99638.38;4954776;28;20043;-68
2021/04/21 06:05:35;;;;;;;53.60;40.67;;;;;;;7.04;67.50;99640.47;4951488;28;20027;-68
2021/04/21 06:08:12;;;;;;;51.10;34.78;;;;;;;7.21;66.95;99632.81;4952106;28;20411;-69
2021/04/21 06:10:37;;;;;;;51.85;38.22;;;;;;;7.42;66.85;99632.91;4951822;29;20046;-69
2021/04/21 06:13:03;;;;;;;153.27;60.10;;;;;;;7.59;66.21;99633.09;4945820;28;20040;-69
2021/04/21 06:15:34;;;;;;;288.48;75.97;;;;;;;7.87;65.78;99638.09;4932123;29;20043;-70
2021/04/21 06:18:06;;;;;;;448.02;131.85;;;;;;;8.14;65.20;99637.88;4932226;29;20371;-70
2021/04/21 06:20:40;;;;;;;112.63;50.30;;;;;;;8.40;64.33;99639.44;4930231;29;20191;-68
2021/04/21 06:23:15;;;;;;;74.57;44.15;;;;;;;8.64;64.12;99642.81;4933015;29;20051;-70
2021/04/21 06:25:43;;;;;;;68.93;39.85;;;;;;;8.82;63.56;99638.50;4942686;28;20098;-68
2021/04/21 06:28:10;;;;;;;78.90;41.63;;;;;;;9.08;62.43;99644.34;4954575;28;20039;-69
2021/04/21 06:30:37;;;;;;;51.80;35.42;;;;;;;9.48;61.47;99643.38;4954787;29;20090;-69
2021/04/21 06:33:04;;;;;;;44.20;33.50;;;;;;;9.92;60.70;99647.41;4936207;29;20034;-68
2021/04/21 06:35:30;;;;;;;49.70;33.65;;;;;;;10.30;58.93;99649.06;4953796;28;20491;-72
2021/04/21 06:37:57;;;;;;;43.80;32.22;;;;;;;10.70;57.49;99648.78;4954647;29;20070;-69
2021/04/21 06:40:28;;;;;;;45.05;33.75;;;;;;;11.15;56.14;99649.97;4954733;29;20043;-71
2021/04/21 06:42:56;;;;;;;48.67;34.20;;;;;;;11.48;55.98;99641.13;4954548;29;20147;-71
2021/04/21 06:45:26;;;;;;;42.22;31.13;;;;;;;11.92;54.68;99641.31;4936742;29;20043;-69
2021/04/21 06:47:54;;;;;;;41.40;33.85;;;;;;;12.27;53.32;99635.75;4937323;29;20031;-69
2021/04/21 06:50:25;;;;;;;37.88;31.30;;;;;;;12.47;52.89;99634.59;4954193;29;20031;-69
2021/04/21 06:52:50;;;;;;;40.78;29.65;;;;;;;12.71;52.21;99642.84;4929094;29;20067;-69
2021/04/21 06:55:17;;;;;;;44.00;33.00;;;;;;;13.02;51.77;99636.53;4915710;29;20064;-69
2021/04/21 06:57:43;;;;;;;40.75;30.05;;;;;;;13.30;51.06;99646.28;4915956;29;20064;-69
2021/04/21 07:00:17;;;;;;;55.65;33.67;;;;;;;13.62;50.63;99629.31;4914934;29;20035;-70
2021/04/21 07:02:45;;;;;;;51.83;32.78;;;;;;;13.83;49.20;99633.22;4915654;29;20036;-69
2021/04/21 07:05:31;;;;;;;70.85;38.33;;;;;;;14.00;49.36;99631.25;4915649;29;20139;-69
2021/04/21 07:08:17;;;;;;;76.40;34.85;;;;;;;14.21;48.85;99632.47;4916071;29;20415;-69
2021/04/21 07:10:53;;;;;;;55.83;33.67;;;;;;;14.50;47.95;99640.28;4915791;29;20028;-70
2021/04/21 07:13:27;;;;;;;53.90;34.35;;;;;;;14.84;47.08;99633.56;4923046;29;20415;-69
2021/04/21 07:15:55;;;;;;;46.13;31.77;;;;;;;15.28;45.96;99628.72;4934361;29;20044;-69
2021/04/21 07:18:27;;;;;;;40.03;30.50;;;;;;;15.75;45.11;99632.44;4934690;29;20047;-69
2021/04/21 07:20:55;;;;;;;53.20;33.15;;;;;;;16.06;44.47;99629.22;4934835;29;20039;-69
2021/04/21 07:23:23;;;;;;;45.28;31.52;;;;;;;16.33;43.98;99628.09;4934285;29;20036;-69
2021/04/21 07:25:49;;;;;;;51.22;32.78;;;;;;;16.46;43.64;99634.19;4934269;29;20032;-69
2021/04/21 07:28:17;;;;;;;47.00;32.47;;;;;;;16.66;41.89;99631.81;4934638;29;20042;-69
2021/04/21 07:30:43;;;;;;;48.75;34.60;;;;;;;16.74;41.85;99634.75;4934438;29;20032;-71
2021/04/21 07:33:09;;;;;;;47.13;34.90;;;;;;;17.01;41.11;99636.28;4940109;28;20043;-70
2021/04/21 07:35:35;;;;;;;53.05;37.50;;;;;;;17.09;40.59;99629.34;4948040;28;20438;-69
2021/04/21 07:38:01;;;;;;;45.67;36.47;;;;;;;17.05;40.41;99627.88;4942357;28;20031;-68
2021/04/21 07:40:35;;;;;;;45.88;36.78;;;;;;;17.15;40.36;99634.22;4946927;28;20435;-70
2021/04/21 07:43:07;;;;;;;53.17;43.65;;;;;;;17.31;40.54;99635.66;4927038;29;20578;-71
2021/04/21 07:45:54;;;;;;;49.92;39.33;;;;;;;17.24;41.02;99642.44;4943559;29;20496;-70
2021/04/21 07:48:34;;;;;;;50.92;43.40;;;;;;;17.49;40.52;99639.50;4936019;29;20038;-70
2021/04/21 07:51:21;;;;;;;51.80;41.13;;;;;;;17.65;40.03;99632.94;4934257;29;20054;-70
2021/04/21 07:53:52;;;;;;;57.13;42.95;;;;;;;18.00;39.39;99652.25;4934208;29;20038;-71
2021/04/21 07:56:20;;;;;;;51.63;41.13;;;;;;;18.26;39.29;99651.06;4934044;29;20700;-72
2021/04/21 07:58:46;;;;;;;48.83;40.00;;;;;;;18.39;39.30;99646.41;4934253;29;20039;-70
2021/04/21 08:01:12;;;;;;;57.10;40.95;;;;;;;18.69;38.91;99652.81;4916749;29;20035;-71
2021/04/21 08:03:38;;;;;;;52.28;46.42;;;;;;;18.75;38.65;99654.94;4940648;28;20039;-71
2021/04/21 08:06:04;;;;;;;54.90;46.10;;;;;;;18.84;38.34;99655.03;4946243;28;20035;-71
2021/04/21 08:08:31;;;;;;;54.75;46.38;;;;;;;18.84;38.64;99652.34;4943538;29;20050;-71
2021/04/21 08:10:57;;;;;;;56.20;50.22;;;;;;;18.80;38.18;99656.28;4951213;28;20653;-70
2021/04/21 08:13:41;;;;;;;53.20;47.58;;;;;;;19.01;37.87;99658.09;4942276;28;20035;-71
2021/04/21 08:16:30;;;;;;;63.30;50.30;;;;;;;18.88;37.17;99667.16;4927140;29;20468;-70
2021/04/21 08:18:56;;;;;;;140.00;55.45;;;;;;;18.65;38.12;99665.56;4905327;29;20068;-71
2021/04/21 08:21:40;;;;;;;55.53;49.42;;;;;;;18.74;37.78;99672.78;4897461;29;20130;-70
2021/04/21 08:24:07;;;;;;;60.22;48.40;;;;;;;18.79;37.91;99667.09;4930844;29;20039;-70
2021/04/21 08:26:32;;;;;;;56.53;44.78;;;;;;;18.63;38.13;99668.38;4932825;29;20047;-71
2021/04/21 08:28:59;;;;;;;55.03;45.72;;;;;;;18.34;38.75;99667.31;4917658;29;20396;-70
2021/04/21 08:31:26;;;;;;;47.85;42.65;;;;;;;18.24;39.23;99665.41;4912015;29;20074;-70
2021/04/21 08:33:52;;;;;;;49.78;38.88;;;;;;;18.38;38.75;99669.56;4897708;29;20080;-70
2021/04/21 08:36:21;;;;;;;44.45;39.60;;;;;;;18.89;37.96;99668.00;4930006;29;20035;-70
2021/04/21 08:38:47;;;;;;;42.75;37.63;;;;;;;19.08;37.58;99678.78;4948713;29;20031;-70
2021/04/21 08:41:18;;;;;;;45.33;37.42;;;;;;;19.36;36.71;99670.19;4934652;29;20142;-72
2021/04/21 08:43:47;;;;;;;42.05;36.90;;;;;;;19.66;36.12;99677.31;4929108;29;20384;-72
2021/04/21 08:46:14;;;;;;;55.13;37.90;;;;;;;19.55;36.46;99680.97;4926966;29;20491;-70
2021/04/21 08:48:42;;;;;;;46.15;37.85;;;;;;;19.79;36.12;99667.28;4925352;29;20042;-69
2021/04/21 08:51:10;;;;;;;42.28;36.78;;;;;;;19.85;35.76;99677.41;4926859;29;20961;-70
2021/04/21 08:53:38;;;;;;;44.03;38.10;;;;;;;19.99;35.60;99668.16;4927277;29;20039;-72
2021/04/21 08:56:05;;;;;;;40.15;35.13;;;;;;;19.99;35.62;99678.88;4927690;29;20070;-73
2021/04/21 08:58:33;;;;;;;40.25;36.03;;;;;;;20.20;35.29;99684.06;4909853;29;20096;-72
2021/04/21 09:00:59;;;;;;;39.30;34.40;;;;;;;19.93;35.79;99679.41;4908972;29;20404;-72
2021/04/21 09:03:25;;;;;;;142.30;44.55;;;;;;;19.82;36.38;99671.50;4918859;29;20035;-72
2021/04/21 09:05:51;;;;;;;53.03;33.13;;;;;;;19.77;36.39;99679.94;4925997;29;20047;-72
2021/04/21 09:08:19;;;;;;;39.45;34.38;;;;;;;19.86;36.07;99679.13;4926525;29;20043;-73
2021/04/21 09:10:45;;;;;;;44.63;30.83;;;;;;;19.55;36.02;99682.81;4927647;29;20091;-73
2021/04/21 09:13:12;;;;;;;43.17;30.67;;;;;;;19.79;35.96;99682.47;4927466;29;20444;-72
2021/04/21 09:15:38;;;;;;;39.70;28.95;;;;;;;19.84;34.92;99678.41;4916922;29;20035;-72
2021/04/21 09:18:04;;;;;;;35.13;26.58;;;;;;;20.12;34.16;99683.94;4927389;29;20100;-72
2021/04/21 09:20:29;;;;;;;32.75;26.30;;;;;;;20.38;32.43;99687.75;4928183;29;20047;-71
2021/04/21 09:23:11;;;;;;;33.33;26.35;;;;;;;20.52;32.64;99685.63;4929398;29;20555;-74
2021/04/21 09:25:53;;;;;;;33.50;27.95;;;;;;;20.42;33.45;99691.00;4927480;29;20054;-74
2021/04/21 09:28:21;;;;;;;46.25;30.65;;;;;;;20.43;33.78;99681.13;4940458;29;20042;-74
2021/04/21 09:30:56;;;;;;;37.42;29.77;;;;;;;21.02;33.00;99689.00;4927068;29;20039;-72
2021/04/21 09:33:25;;;;;;;30.73;27.17;;;;;;;21.35;31.88;99688.59;4926762;29;20729;-72
2021/04/21 09:35:51;;;;;;;52.72;28.08;;;;;;;21.93;31.18;99688.34;4927356;29;20050;-70
2021/04/21 09:38:21;;;;;;;41.13;29.50;;;;;;;22.62;29.79;99688.69;4937960;28;20039;-71
2021/04/21 09:40:52;;;;;;;33.03;27.10;;;;;;;22.92;29.51;99688.25;4908660;29;20032;-71
2021/04/21 09:43:19;;;;;;;40.15;27.05;;;;;;;23.36;28.75;99693.59;4924942;29;20043;-69
2021/04/21 09:45:48;;;;;;;53.88;22.55;;;;;;;23.18;28.66;99698.19;4946737;28;20047;-70
2021/04/21 09:48:16;;;;;;;22.75;20.38;;;;;;;23.49;26.69;99692.31;4934303;29;20043;-72
2021/04/21 09:50:54;;;;;;;26.85;23.17;;;;;;;23.27;27.73;99694.53;4929929;29;20099;-71
2021/04/21 09:53:21;;;;;;;51.53;22.75;;;;;;;23.79;26.87;99694.47;4928911;29;20044;-70
2021/04/21 09:56:10;;;;;;;32.13;20.45;;;;;;;24.09;25.98;99692.19;4927338;29;20039;-70
2021/04/21 09:58:40;;;;;;;28.13;19.35;;;;;;;24.38;25.47;99688.22;4923298;29;20051;-71
2021/04/21 10:01:19;;;;;;;25.75;19.45;;;;;;;24.71;24.65;99680.16;4928619;29;20049;-70
2021/04/21 10:03:44;;;;;;;33.10;24.95;;;;;;;23.98;25.84;99687.97;4930409;29;20055;-71
2021/04/21 10:06:21;;;;;;;20.75;18.30;;;;;;;24.17;25.89;99686.84;4931680;29;20070;-71
2021/04/21 10:08:47;;;;;;;29.40;21.15;;;;;;;24.19;25.11;99682.16;4937545;29;20042;-71
2021/04/21 10:11:13;;;;;;;24.33;21.73;;;;;;;24.27;25.45;99678.63;4941295;29;20046;-71
2021/04/21 10:13:42;;;;;;;26.40;21.35;;;;;;;24.20;25.90;99678.44;4949812;28;20046;-71
2021/04/21 10:16:09;;;;;;;31.00;22.55;;;;;;;24.30;25.63;99677.44;4925594;29;20046;-70
2021/04/21 10:18:36;;;;;;;25.23;21.02;;;;;;;24.05;25.76;99674.72;4941818;28;20046;-70
2021/04/21 10:21:03;;;;;;;24.80;21.67;;;;;;;24.29;25.66;99681.13;4949654;29;20043;-71
2021/04/21 10:23:29;;;;;;;26.77;20.25;;;;;;;24.88;24.73;99681.81;4949907;29;20042;-70
2021/04/21 10:25:55;;;;;;;23.60;20.60;;;;;;;25.01;24.58;99682.16;4949368;28;20570;-70
2021/04/21 10:28:22;;;;;;;26.58;22.02;;;;;;;25.14;24.12;99680.78;4933166;29;20051;-70
2021/04/21 10:30:48;;;;;;;31.48;21.73;;;;;;;24.72;24.80;99682.69;4930199;29;20039;-70
2021/04/21 10:33:14;;;;;;;25.65;20.83;;;;;;;23.75;25.96;99682.38;4929918;29;20043;-71
2021/04/21 10:35:39;;;;;;;21.67;19.00;;;;;;;22.65;27.14;99677.63;4930023;29;20032;-70
2021/04/21 10:38:05;;;;;;;25.33;19.48;;;;;;;21.92;28.38;99678.59;4929761;29;20036;-70
2021/04/21 10:40:31;;;;;;;23.73;18.00;;;;;;;21.43;28.42;99675.31;4929701;29;20118;-70
2021/04/21 10:43:02;;;;;;;23.38;17.60;;;;;;;21.18;28.85;99676.81;4913003;29;20407;-68
2021/04/21 10:45:29;;;;;;;20.80;16.52;;;;;;;21.69;27.92;99680.84;4929007;29;20043;-71
2021/04/21 10:47:56;;;;;;;21.92;16.63;;;;;;;21.57;28.17;99671.31;4928115;29;20747;-70
2021/04/21 10:50:45;;;;;;;23.35;15.35;;;;;;;21.53;28.43;99669.91;4929661;29;20047;-70
2021/04/21 10:53:43;;;;;;;19.60;16.48;;;;;;;21.01;27.61;99667.69;4913158;29;20044;-69
2021/04/21 10:56:24;;;;;;;21.95;16.10;;;;;;;20.55;28.15;99674.66;4928818;29;20126;-71
2021/04/21 10:58:56;;;;;;;32.95;17.15;;;;;;;20.32;29.18;99674.94;4929336;29;20117;-74
2021/04/21 11:01:33;;;;;;;19.35;15.80;;;;;;;20.12;30.22;99673.22;4929629;29;20122;-72
2021/04/21 11:03:59;;;;;;;25.23;17.70;;;;;;;19.97;30.61;99675.47;4929188;29;20036;-72
2021/04/21 11:06:40;;;;;;;28.95;15.90;;;;;;;19.62;30.81;99681.28;4912285;29;20102;-71
2021/04/21 11:09:12;;;;;;;29.25;16.20;;;;;;;19.51;31.31;99675.03;4928804;29;20051;-71
2021/04/21 11:11:40;;;;;;;19.27;14.93;;;;;;;19.46;30.67;99685.28;4929221;29;20054;-69
2021/04/21 11:14:08;;;;;;;19.27;12.43;;;;;;;19.51;29.81;99687.56;4929292;29;20039;-70
2021/04/21 11:16:36;;;;;;;16.33;12.93;;;;;;;19.25;28.40;99689.84;4929079;29;20098;-72
2021/04/21 11:19:17;;;;;;;16.15;13.43;;;;;;;19.03;28.29;99689.03;4929157;29;20043;-70
2021/04/21 11:21:42;;;;;;;20.15;13.13;;;;;;;18.93;28.77;99685.47;4929371;29;20141;-71
2021/04/21 11:24:07;;;;;;;19.52;14.38;;;;;;;18.81;30.37;99681.16;4929388;29;20035;-73
2021/04/21 11:26:34;;;;;;;24.67;13.95;;;;;;;18.78;28.81;99676.94;4929266;29;20040;-69
2021/04/21 11:29:18;;;;;;;16.35;11.63;;;;;;;18.82;29.00;99678.34;4929506;29;20110;-68
2021/04/21 11:31:43;;;;;;;23.80;15.30;;;;;;;18.71;30.88;99680.22;4928716;29;20048;-69
2021/04/21 11:34:20;;;;;;;20.60;14.82;;;;;;;18.61;30.77;99682.84;4928231;29;20153;-70
2021/04/21 11:37:08;;;;;;;26.55;14.57;;;;;;;18.53;30.76;99680.78;4932402;29;20568;-71
2021/04/21 11:42:21;;;;;;;17.38;11.52;;;;;;;18.68;28.49;99676.00;4932000;29;20039;-69
2021/04/21 11:44:47;;;;;;;17.60;13.07;;;;;;;18.84;29.51;99673.72;4940554;29;20665;-71
2021/04/21 11:47:27;;;;;;;17.05;11.60;;;;;;;19.05;29.53;99671.06;4948246;29;20126;-73
2021/04/21 11:50:04;;;;;;;85.25;24.77;;;;;;;19.14;29.97;99665.88;4933546;29;20396;-73
2021/04/21 11:52:57;;;;;;;31.35;15.70;;;;;;;18.83;30.98;99668.53;4927625;29;20107;-72